sensor_id;sensor_type;location;lat;lon;timestamp;pressure;altitude;pressure_sealevel;temperature;humidity
45078;BME280;60508;42.622;25.416;2023-04-19T00:00:29;96302.06;;;10.22;99.23
45078;BME280;60508;42.622;25.416;2023-04-19T00:02:55;96309.88;;;10.02;100.00
45078;BME280;60508;42.622;25.416;2023-04-19T00:05:21;96302.63;;;10.02;100.00
45078;BME280;60508;42.622;25.416;2023-04-19T00:07:49;96301.88;;;10.07;100.00
45078;BME280;60508;42.622;25.416;2023-04-19T00:10:15;96304.22;;;9.98;100.00
45078;BME280;60508;42.622;25.416;2023-04-19T00:12:42;96294.47;;;9.92;100.00
45078;BME280;60508;42.622;25.416;2023-04-19T00:15:08;96291.44;;;9.83;100.00
45078;BME280;60508;42.622;25.416;2023-04-19T00:17:34;96296.28;;;9.86;100.00
45078;BME280;60508;42.622;25.416;2023-04-19T00:20:00;96284.91;;;10.01;100.00
45078;BME280;60508;42.622;25.416;2023-04-19T00:22:26;96283.03;;;10.02;100.00
45078;BME280;60508;42.622;25.416;2023-04-19T00:24:52;96281.34;;;9.96;100.00
45078;BME280;60508;42.622;25.416;2023-04-19T00:27:18;96279.84;;;10.05;100.00
45078;BME280;60508;42.622;25.416;2023-04-19T00:29:44;96277.13;;;10.00;100.00
45078;BME280;60508;42.622;25.416;2023-04-19T00:32:10;96263.50;;;10.07;100.00
45078;BME280;60508;42.622;25.416;2023-04-19T00:34:36;96269.63;;;10.02;100.00
45078;BME280;60508;42.622;25.416;2023-04-19T00:37:02;96260.69;;;9.96;100.00
45078;BME280;60508;42.622;25.416;2023-04-19T00:39:31;96268.81;;;10.01;100.00
45078;BME280;60508;42.622;25.416;2023-04-19T00:41:58;96272.69;;;9.89;100.00
45078;BME280;60508;42.622;25.416;2023-04-19T00:44:24;96270.53;;;9.85;100.00
45078;BME280;60508;42.622;25.416;2023-04-19T00:46:53;96259.28;;;9.89;100.00
45078;BME280;60508;42.622;25.416;2023-04-19T00:49:21;96278.38;;;9.92;100.00
45078;BME280;60508;42.622;25.416;2023-04-19T00:51:49;96265.25;;;9.96;100.00
45078;BME280;60508;42.622;25.416;2023-04-19T00:54:16;96263.06;;;9.93;100.00
45078;BME280;60508;42.622;25.416;2023-04-19T00:56:43;96270.56;;;9.91;100.00
45078;BME280;60508;42.622;25.416;2023-04-19T00:59:10;96268.75;;;9.96;100.00
45078;BME280;60508;42.622;25.416;2023-04-19T01:01:37;96261.22;;;9.93;100.00
45078;BME280;60508;42.622;25.416;2023-04-19T01:04:07;96256.56;;;9.83;100.00
45078;BME280;60508;42.622;25.416;2023-04-19T01:06:36;96264.44;;;9.95;100.00
45078;BME280;60508;42.622;25.416;2023-04-19T01:09:03;96269.78;;;9.90;100.00
45078;BME280;60508;42.622;25.416;2023-04-19T01:11:29;96266.50;;;9.88;100.00
45078;BME280;60508;42.622;25.416;2023-04-19T01:13:56;96254.16;;;9.87;100.00
45078;BME280;60508;42.622;25.416;2023-04-19T01:16:25;96266.34;;;9.95;100.00
45078;BME280;60508;42.622;25.416;2023-04-19T01:18:51;96263.19;;;10.03;100.00
45078;BME280;60508;42.622;25.416;2023-04-19T01:21:19;96257.19;;;9.96;100.00
45078;BME280;60508;42.622;25.416;2023-04-19T01:23:47;96261.47;;;9.92;100.00
45078;BME280;60508;42.622;25.416;2023-04-19T01:26:14;96256.59;;;9.89;100.00
45078;BME280;60508;42.622;25.416;2023-04-19T01:28:41;96247.81;;;9.93;100.00
45078;BME280;60508;42.622;25.416;2023-04-19T01:31:08;96253.91;;;9.89;100.00
45078;BME280;60508;42.622;25.416;2023-04-19T01:33:36;96246.22;;;9.97;100.00
45078;BME280;60508;42.622;25.416;2023-04-19T01:36:02;96246.75;;;9.99;100.00
45078;BME280;60508;42.622;25.416;2023-04-19T01:38:28;96229.38;;;10.02;100.00
45078;BME280;60508;42.622;25.416;2023-04-19T01:40:54;96239.03;;;10.03;100.00
45078;BME280;60508;42.622;25.416;2023-04-19T01:43:23;96246.50;;;10.01;100.00
45078;BME280;60508;42.622;25.416;2023-04-19T01:45:49;96233.16;;;10.06;100.00
45078;BME280;60508;42.622;25.416;2023-04-19T01:48:15;96236.88;;;10.00;100.00
45078;BME280;60508;42.622;25.416;2023-04-19T01:50:41;96226.88;;;9.95;100.00
45078;BME280;60508;42.622;25.416;2023-04-19T01:53:07;96240.81;;;9.92;100.00
45078;BME280;60508;42.622;25.416;2023-04-19T01:55:33;96234.88;;;9.90;100.00
45078;BME280;60508;42.622;25.416;2023-04-19T01:58:00;96233.75;;;9.86;100.00
45078;BME280;60508;42.622;25.416;2023-04-19T02:00:26;96242.09;;;9.90;100.00
45078;BME280;60508;42.622;25.416;2023-04-19T02:02:52;96233.22;;;9.84;100.00
45078;BME280;60508;42.622;25.416;2023-04-19T02:05:18;96220.00;;;9.77;100.00
45078;BME280;60508;42.622;25.416;2023-04-19T02:07:45;96232.75;;;9.92;100.00
45078;BME280;60508;42.622;25.416;2023-04-19T02:10:11;96224.69;;;9.92;100.00
45078;BME280;60508;42.622;25.416;2023-04-19T02:12:37;96216.41;;;9.94;100.00
45078;BME280;60508;42.622;25.416;2023-04-19T02:15:03;96218.63;;;10.02;100.00
45078;BME280;60508;42.622;25.416;2023-04-19T02:17:30;96213.16;;;9.92;100.00
45078;BME280;60508;42.622;25.416;2023-04-19T02:19:59;96209.09;;;9.89;100.00
45078;BME280;60508;42.622;25.416;2023-04-19T02:22:26;96201.09;;;9.94;100.00
45078;BME280;60508;42.622;25.416;2023-04-19T02:24:52;96211.31;;;9.97;100.00
45078;BME280;60508;42.622;25.416;2023-04-19T02:27:18;96211.78;;;9.89;100.00
45078;BME280;60508;42.622;25.416;2023-04-19T02:29:45;96218.53;;;9.92;100.00
45078;BME280;60508;42.622;25.416;2023-04-19T02:32:11;96214.13;;;9.80;100.00
45078;BME280;60508;42.622;25.416;2023-04-19T02:34:38;96205.66;;;9.66;100.00
45078;BME280;60508;42.622;25.416;2023-04-19T02:37:04;96216.72;;;9.75;100.00
45078;BME280;60508;42.622;25.416;2023-04-19T02:39:30;96221.28;;;9.75;100.00
45078;BME280;60508;42.622;25.416;2023-04-19T02:41:56;96204.69;;;9.78;100.00
45078;BME280;60508;42.622;25.416;2023-04-19T02:44:22;96204.25;;;9.86;100.00
45078;BME280;60508;42.622;25.416;2023-04-19T02:46:49;96208.69;;;9.75;100.00
45078;BME280;60508;42.622;25.416;2023-04-19T02:49:16;96204.53;;;9.90;100.00
45078;BME280;60508;42.622;25.416;2023-04-19T02:51:42;96210.22;;;9.93;100.00
45078;BME280;60508;42.622;25.416;2023-04-19T02:54:10;96205.00;;;10.09;100.00
45078;BME280;60508;42.622;25.416;2023-04-19T02:56:36;96210.78;;;10.22;100.00
45078;BME280;60508;42.622;25.416;2023-04-19T02:59:03;96193.47;;;10.35;99.26
45078;BME280;60508;42.622;25.416;2023-04-19T03:01:30;96204.00;;;10.47;98.42
45078;BME280;60508;42.622;25.416;2023-04-19T03:03:58;96204.72;;;10.32;97.10
45078;BME280;60508;42.622;25.416;2023-04-19T03:06:24;96205.19;;;10.29;97.00
45078;BME280;60508;42.622;25.416;2023-04-19T03:08:51;96206.91;;;10.40;96.59
45078;BME280;60508;42.622;25.416;2023-04-19T03:11:18;96204.56;;;10.22;96.68
45078;BME280;60508;42.622;25.416;2023-04-19T03:13:45;96209.19;;;10.27;97.07
45078;BME280;60508;42.622;25.416;2023-04-19T03:16:12;96210.81;;;10.28;97.04
45078;BME280;60508;42.622;25.416;2023-04-19T03:18:39;96209.00;;;10.33;97.08
45078;BME280;60508;42.622;25.416;2023-04-19T03:21:05;96202.41;;;10.19;97.35
45078;BME280;60508;42.622;25.416;2023-04-19T03:23:44;96204.44;;;10.07;96.82
45078;BME280;60508;42.622;25.416;2023-04-19T03:26:10;96213.25;;;10.02;95.49
45078;BME280;60508;42.622;25.416;2023-04-19T03:28:43;96213.47;;;9.95;96.05
45078;BME280;60508;42.622;25.416;2023-04-19T03:31:16;96210.38;;;10.09;96.73
45078;BME280;60508;42.622;25.416;2023-04-19T03:33:43;96219.19;;;10.04;96.24
45078;BME280;60508;42.622;25.416;2023-04-19T03:36:12;96218.28;;;9.93;96.97
45078;BME280;60508;42.622;25.416;2023-04-19T03:38:40;96215.22;;;9.84;98.36
45078;BME280;60508;42.622;25.416;2023-04-19T03:41:19;96213.22;;;9.97;97.53
45078;BME280;60508;42.622;25.416;2023-04-19T03:43:47;96206.66;;;9.87;96.99
45078;BME280;60508;42.622;25.416;2023-04-19T03:46:13;96199.50;;;9.93;94.90
45078;BME280;60508;42.622;25.416;2023-04-19T03:48:40;96216.34;;;10.16;93.89
45078;BME280;60508;42.622;25.416;2023-04-19T03:51:06;96223.53;;;10.10;94.35
45078;BME280;60508;42.622;25.416;2023-04-19T03:53:32;96223.78;;;10.09;94.47
45078;BME280;60508;42.622;25.416;2023-04-19T03:55:59;96213.31;;;10.07;94.93
45078;BME280;60508;42.622;25.416;2023-04-19T03:58:25;96218.25;;;10.20;94.30
45078;BME280;60508;42.622;25.416;2023-04-19T04:00:58;96226.91;;;10.28;93.94
45078;BME280;60508;42.622;25.416;2023-04-19T04:03:25;96222.50;;;10.38;92.49
45078;BME280;60508;42.622;25.416;2023-04-19T04:05:51;96212.94;;;10.26;93.49
45078;BME280;60508;42.622;25.416;2023-04-19T04:08:17;96218.06;;;10.27;93.71
45078;BME280;60508;42.622;25.416;2023-04-19T04:10:43;96222.50;;;10.38;93.75
45078;BME280;60508;42.622;25.416;2023-04-19T04:13:10;96223.81;;;10.36;92.33
45078;BME280;60508;42.622;25.416;2023-04-19T04:15:44;96228.19;;;10.47;92.45
45078;BME280;60508;42.622;25.416;2023-04-19T04:18:11;96232.03;;;10.56;91.10
45078;BME280;60508;42.622;25.416;2023-04-19T04:20:38;96216.66;;;10.47;90.91
45078;BME280;60508;42.622;25.416;2023-04-19T04:23:08;96224.22;;;10.55;90.62
45078;BME280;60508;42.622;25.416;2023-04-19T04:25:38;96232.31;;;10.60;90.12
45078;BME280;60508;42.622;25.416;2023-04-19T04:28:07;96227.94;;;10.49;88.26
45078;BME280;60508;42.622;25.416;2023-04-19T04:30:33;96242.84;;;10.67;87.42
45078;BME280;60508;42.622;25.416;2023-04-19T04:33:01;96233.88;;;10.56;88.04
45078;BME280;60508;42.622;25.416;2023-04-19T04:35:26;96226.63;;;10.51;88.39
45078;BME280;60508;42.622;25.416;2023-04-19T04:38:02;96235.91;;;10.38;88.42
45078;BME280;60508;42.622;25.416;2023-04-19T04:40:28;96236.97;;;10.37;89.49
45078;BME280;60508;42.622;25.416;2023-04-19T04:42:55;96235.47;;;10.52;88.75
45078;BME280;60508;42.622;25.416;2023-04-19T04:45:22;96225.22;;;10.44;89.26
45078;BME280;60508;42.622;25.416;2023-04-19T04:47:49;96243.03;;;10.55;89.97
45078;BME280;60508;42.622;25.416;2023-04-19T04:50:16;96234.44;;;10.53;89.23
45078;BME280;60508;42.622;25.416;2023-04-19T04:52:43;96226.00;;;10.44;89.34
45078;BME280;60508;42.622;25.416;2023-04-19T04:55:14;96239.13;;;10.35;89.18
45078;BME280;60508;42.622;25.416;2023-04-19T04:57:43;96229.97;;;10.36;90.11
45078;BME280;60508;42.622;25.416;2023-04-19T05:00:15;96230.41;;;10.28;89.29
45078;BME280;60508;42.622;25.416;2023-04-19T05:02:51;96236.44;;;10.35;88.38
45078;BME280;60508;42.622;25.416;2023-04-19T05:05:18;96226.22;;;10.37;88.15
45078;BME280;60508;42.622;25.416;2023-04-19T05:07:44;96226.19;;;10.32;87.40
45078;BME280;60508;42.622;25.416;2023-04-19T05:10:11;96228.41;;;10.40;87.38
45078;BME280;60508;42.622;25.416;2023-04-19T05:12:46;96225.75;;;10.46;86.76
45078;BME280;60508;42.622;25.416;2023-04-19T05:15:12;96234.09;;;10.49;86.58
45078;BME280;60508;42.622;25.416;2023-04-19T05:17:43;96236.25;;;10.47;86.84
45078;BME280;60508;42.622;25.416;2023-04-19T05:20:09;96220.69;;;10.49;86.53
45078;BME280;60508;42.622;25.416;2023-04-19T05:22:36;96236.06;;;10.59;86.67
45078;BME280;60508;42.622;25.416;2023-04-19T05:25:03;96229.00;;;10.48;87.05
45078;BME280;60508;42.622;25.416;2023-04-19T05:27:29;96231.69;;;10.48;85.86
45078;BME280;60508;42.622;25.416;2023-04-19T05:29:55;96225.22;;;10.44;86.90
45078;BME280;60508;42.622;25.416;2023-04-19T05:32:22;96227.44;;;10.52;86.71
45078;BME280;60508;42.622;25.416;2023-04-19T05:34:53;96228.25;;;10.57;84.55
45078;BME280;60508;42.622;25.416;2023-04-19T05:37:21;96220.19;;;10.57;84.08
45078;BME280;60508;42.622;25.416;2023-04-19T05:39:49;96220.25;;;10.63;82.74
45078;BME280;60508;42.622;25.416;2023-04-19T05:42:17;96224.81;;;10.62;83.54
45078;BME280;60508;42.622;25.416;2023-04-19T05:44:43;96234.06;;;10.76;83.26
45078;BME280;60508;42.622;25.416;2023-04-19T05:47:09;96232.91;;;10.67;82.46
45078;BME280;60508;42.622;25.416;2023-04-19T05:49:54;96222.28;;;10.83;80.56
45078;BME280;60508;42.622;25.416;2023-04-19T05:52:28;96222.59;;;10.91;79.85
45078;BME280;60508;42.622;25.416;2023-04-19T05:54:57;96224.50;;;10.96;81.14
45078;BME280;60508;42.622;25.416;2023-04-19T05:57:23;96224.47;;;10.91;80.76
45078;BME280;60508;42.622;25.416;2023-04-19T05:59:50;96228.53;;;10.93;81.17
45078;BME280;60508;42.622;25.416;2023-04-19T06:02:22;96223.72;;;11.01;79.54
45078;BME280;60508;42.622;25.416;2023-04-19T06:04:48;96220.75;;;10.97;79.53
45078;BME280;60508;42.622;25.416;2023-04-19T06:07:14;96230.47;;;11.03;81.66
45078;BME280;60508;42.622;25.416;2023-04-19T06:09:40;96229.22;;;11.16;81.73
45078;BME280;60508;42.622;25.416;2023-04-19T06:12:07;96230.00;;;11.17;80.87
45078;BME280;60508;42.622;25.416;2023-04-19T06:14:33;96225.94;;;11.14;80.06
45078;BME280;60508;42.622;25.416;2023-04-19T06:16:59;96238.59;;;11.13;80.24
45078;BME280;60508;42.622;25.416;2023-04-19T06:19:25;96239.91;;;11.11;78.59
45078;BME280;60508;42.622;25.416;2023-04-19T06:21:52;96235.94;;;11.24;79.45
45078;BME280;60508;42.622;25.416;2023-04-19T06:24:18;96230.91;;;11.32;79.45
45078;BME280;60508;42.622;25.416;2023-04-19T06:26:44;96233.59;;;11.32;78.52
45078;BME280;60508;42.622;25.416;2023-04-19T06:29:12;96232.84;;;11.42;78.23
45078;BME280;60508;42.622;25.416;2023-04-19T06:31:38;96242.53;;;11.48;77.36
45078;BME280;60508;42.622;25.416;2023-04-19T06:34:05;96230.41;;;11.46;77.19
45078;BME280;60508;42.622;25.416;2023-04-19T06:36:31;96248.22;;;11.52;77.15
45078;BME280;60508;42.622;25.416;2023-04-19T06:38:58;96236.56;;;11.36;74.90
45078;BME280;60508;42.622;25.416;2023-04-19T06:41:24;96248.16;;;11.42;76.22
45078;BME280;60508;42.622;25.416;2023-04-19T06:43:50;96247.81;;;11.28;75.14
45078;BME280;60508;42.622;25.416;2023-04-19T06:46:19;96241.41;;;11.34;77.96
45078;BME280;60508;42.622;25.416;2023-04-19T06:48:44;96251.63;;;11.32;76.40
45078;BME280;60508;42.622;25.416;2023-04-19T06:51:10;96242.19;;;11.29;78.00
45078;BME280;60508;42.622;25.416;2023-04-19T06:53:37;96247.56;;;11.35;76.89
45078;BME280;60508;42.622;25.416;2023-04-19T06:56:03;96256.44;;;11.30;76.17
45078;BME280;60508;42.622;25.416;2023-04-19T06:58:30;96258.13;;;11.46;76.06
45078;BME280;60508;42.622;25.416;2023-04-19T07:00:58;96270.50;;;11.42;76.37
45078;BME280;60508;42.622;25.416;2023-04-19T07:03:26;96265.91;;;11.43;77.31
45078;BME280;60508;42.622;25.416;2023-04-19T07:05:52;96268.28;;;11.34;76.99
45078;BME280;60508;42.622;25.416;2023-04-19T07:08:22;96266.41;;;11.35;76.93
45078;BME280;60508;42.622;25.416;2023-04-19T07:10:48;96273.72;;;11.44;77.24
45078;BME280;60508;42.622;25.416;2023-04-19T07:13:14;96271.81;;;11.45;76.84
45078;BME280;60508;42.622;25.416;2023-04-19T07:15:41;96273.69;;;11.34;77.27
45078;BME280;60508;42.622;25.416;2023-04-19T07:18:07;96270.91;;;11.24;77.65
45078;BME280;60508;42.622;25.416;2023-04-19T07:20:35;96274.66;;;11.18;77.91
45078;BME280;60508;42.622;25.416;2023-04-19T07:23:02;96272.75;;;11.13;77.22
45078;BME280;60508;42.622;25.416;2023-04-19T07:25:28;96280.56;;;11.14;77.77
45078;BME280;60508;42.622;25.416;2023-04-19T07:27:54;96281.06;;;11.11;78.16
45078;BME280;60508;42.622;25.416;2023-04-19T07:30:21;96285.69;;;11.21;78.16
45078;BME280;60508;42.622;25.416;2023-04-19T07:32:48;96286.41;;;11.06;77.21
45078;BME280;60508;42.622;25.416;2023-04-19T07:35:16;96285.91;;;11.09;77.97
45078;BME280;60508;42.622;25.416;2023-04-19T07:37:42;96291.88;;;11.22;78.03
45078;BME280;60508;42.622;25.416;2023-04-19T07:40:09;96281.66;;;11.24;77.77
45078;BME280;60508;42.622;25.416;2023-04-19T07:42:35;96296.75;;;11.30;76.90
45078;BME280;60508;42.622;25.416;2023-04-19T07:45:01;96288.47;;;11.37;77.67
45078;BME280;60508;42.622;25.416;2023-04-19T07:47:28;96298.44;;;11.36;77.15
45078;BME280;60508;42.622;25.416;2023-04-19T07:49:54;96297.91;;;11.39;76.23
45078;BME280;60508;42.622;25.416;2023-04-19T07:52:21;96292.31;;;11.51;75.77
45078;BME280;60508;42.622;25.416;2023-04-19T07:54:46;96297.13;;;11.44;76.40
45078;BME280;60508;42.622;25.416;2023-04-19T07:57:12;96294.72;;;11.47;75.77
45078;BME280;60508;42.622;25.416;2023-04-19T07:59:38;96302.00;;;11.52;76.53
45078;BME280;60508;42.622;25.416;2023-04-19T08:02:05;96277.16;;;11.35;75.61
45078;BME280;60508;42.622;25.416;2023-04-19T08:04:31;96303.09;;;11.56;75.95
45078;BME280;60508;42.622;25.416;2023-04-19T08:06:57;96300.69;;;11.55;75.41
45078;BME280;60508;42.622;25.416;2023-04-19T08:09:24;96293.41;;;11.55;75.28
45078;BME280;60508;42.622;25.416;2023-04-19T08:11:50;96302.13;;;11.73;75.06
45078;BME280;60508;42.622;25.416;2023-04-19T08:14:16;96306.16;;;11.75;75.59
45078;BME280;60508;42.622;25.416;2023-04-19T08:16:42;96301.78;;;11.64;74.27
45078;BME280;60508;42.622;25.416;2023-04-19T08:19:08;96314.75;;;11.72;74.09
45078;BME280;60508;42.622;25.416;2023-04-19T08:21:34;96313.44;;;11.75;74.53
45078;BME280;60508;42.622;25.416;2023-04-19T08:23:59;96315.59;;;11.78;74.47
45078;BME280;60508;42.622;25.416;2023-04-19T08:26:26;96317.53;;;11.87;74.88
45078;BME280;60508;42.622;25.416;2023-04-19T08:28:52;96327.41;;;11.77;73.52
45078;BME280;60508;42.622;25.416;2023-04-19T08:31:18;96327.94;;;11.74;74.59
45078;BME280;60508;42.622;25.416;2023-04-19T08:33:46;96329.84;;;11.78;74.78
45078;BME280;60508;42.622;25.416;2023-04-19T08:36:12;96324.22;;;11.85;74.06
45078;BME280;60508;42.622;25.416;2023-04-19T08:38:39;96319.69;;;11.91;73.25
45078;BME280;60508;42.622;25.416;2023-04-19T08:41:05;96327.81;;;12.01;74.60
45078;BME280;60508;42.622;25.416;2023-04-19T08:43:34;96327.88;;;12.11;74.11
45078;BME280;60508;42.622;25.416;2023-04-19T08:46:02;96334.09;;;12.22;73.96
45078;BME280;60508;42.622;25.416;2023-04-19T08:48:29;96337.63;;;12.33;72.88
45078;BME280;60508;42.622;25.416;2023-04-19T08:50:57;96338.22;;;12.45;72.76
45078;BME280;60508;42.622;25.416;2023-04-19T08:53:27;96339.03;;;12.56;72.04
45078;BME280;60508;42.622;25.416;2023-04-19T08:55:55;96341.44;;;12.52;71.44
45078;BME280;60508;42.622;25.416;2023-04-19T08:58:24;96328.25;;;12.51;72.04
45078;BME280;60508;42.622;25.416;2023-04-19T09:00:50;96333.38;;;12.52;71.70
45078;BME280;60508;42.622;25.416;2023-04-19T09:03:16;96335.75;;;12.33;71.94
45078;BME280;60508;42.622;25.416;2023-04-19T09:05:42;96343.31;;;12.41;72.13
45078;BME280;60508;42.622;25.416;2023-04-19T09:08:26;96342.78;;;12.45;72.07
45078;BME280;60508;42.622;25.416;2023-04-19T09:10:58;96345.72;;;12.43;71.15
45078;BME280;60508;42.622;25.416;2023-04-19T09:13:25;96350.59;;;12.41;70.70
45078;BME280;60508;42.622;25.416;2023-04-19T09:15:51;96351.69;;;12.50;72.11
45078;BME280;60508;42.622;25.416;2023-04-19T09:18:18;96357.34;;;12.54;71.94
45078;BME280;60508;42.622;25.416;2023-04-19T09:20:45;96351.16;;;12.64;71.15
45078;BME280;60508;42.622;25.416;2023-04-19T09:23:16;96356.25;;;12.45;71.31
45078;BME280;60508;42.622;25.416;2023-04-19T09:25:56;96351.63;;;12.30;70.68
45078;BME280;60508;42.622;25.416;2023-04-19T09:28:25;96341.97;;;12.34;70.63
45078;BME280;60508;42.622;25.416;2023-04-19T09:30:51;96339.06;;;12.71;71.01
45078;BME280;60508;42.622;25.416;2023-04-19T09:33:31;96348.78;;;13.08;69.73
45078;BME280;60508;42.622;25.416;2023-04-19T09:35:58;96345.28;;;13.44;68.40
45078;BME280;60508;42.622;25.416;2023-04-19T09:38:25;96341.75;;;13.12;67.81
45078;BME280;60508;42.622;25.416;2023-04-19T09:40:51;96338.00;;;12.93;66.75
45078;BME280;60508;42.622;25.416;2023-04-19T09:43:24;96346.88;;;13.45;67.21
45078;BME280;60508;42.622;25.416;2023-04-19T09:45:52;96331.09;;;13.98;66.56
45078;BME280;60508;42.622;25.416;2023-04-19T09:48:18;96318.44;;;14.88;65.20
45078;BME280;60508;42.622;25.416;2023-04-19T09:51:04;96314.91;;;15.51;61.48
45078;BME280;60508;42.622;25.416;2023-04-19T09:53:31;96324.09;;;16.66;61.73
45078;BME280;60508;42.622;25.416;2023-04-19T09:55:58;96325.75;;;17.66;57.72
45078;BME280;60508;42.622;25.416;2023-04-19T09:58:25;96320.81;;;18.51;52.63
45078;BME280;60508;42.622;25.416;2023-04-19T10:00:52;96317.88;;;19.21;49.46
45078;BME280;60508;42.622;25.416;2023-04-19T10:03:18;96310.41;;;19.66;48.56
45078;BME280;60508;42.622;25.416;2023-04-19T10:05:46;96307.94;;;19.79;44.88
45078;BME280;60508;42.622;25.416;2023-04-19T10:08:13;96317.53;;;18.27;47.49
45078;BME280;60508;42.622;25.416;2023-04-19T10:10:40;96308.84;;;16.32;53.28
45078;BME280;60508;42.622;25.416;2023-04-19T10:13:10;96310.28;;;15.81;56.05
45078;BME280;60508;42.622;25.416;2023-04-19T10:15:36;96298.72;;;15.46;56.85
45078;BME280;60508;42.622;25.416;2023-04-19T10:18:03;96300.13;;;15.39;59.12
45078;BME280;60508;42.622;25.416;2023-04-19T10:23:12;96285.31;;;15.02;60.39
45078;BME280;60508;42.622;25.416;2023-04-19T10:25:38;96290.56;;;14.93;60.71
45078;BME280;60508;42.622;25.416;2023-04-19T10:28:04;96288.97;;;14.87;61.10
45078;BME280;60508;42.622;25.416;2023-04-19T10:30:31;96288.00;;;14.72;61.43
45078;BME280;60508;42.622;25.416;2023-04-19T10:32:58;96282.50;;;15.17;58.24
45078;BME280;60508;42.622;25.416;2023-04-19T10:35:26;96291.91;;;15.78;55.86
45078;BME280;60508;42.622;25.416;2023-04-19T10:38:12;96287.38;;;16.93;53.36
45078;BME280;60508;42.622;25.416;2023-04-19T10:40:53;96291.53;;;19.07;48.25
45078;BME280;60508;42.622;25.416;2023-04-19T10:45:47;96292.34;;;19.70;45.84
45078;BME280;60508;42.622;25.416;2023-04-19T10:48:30;96288.72;;;18.39;47.17
45078;BME280;60508;42.622;25.416;2023-04-19T10:51:12;96277.75;;;17.01;50.58
45078;BME280;60508;42.622;25.416;2023-04-19T10:56:21;96285.41;;;18.29;47.45
45078;BME280;60508;42.622;25.416;2023-04-19T11:01:47;96276.28;;;19.38;44.79
45078;BME280;60508;42.622;25.416;2023-04-19T11:04:15;96283.28;;;18.98;45.27
45078;BME280;60508;42.622;25.416;2023-04-19T11:09:23;96284.91;;;19.94;44.35
45078;BME280;60508;42.622;25.416;2023-04-19T11:11:51;96277.06;;;19.29;43.52
45078;BME280;60508;42.622;25.416;2023-04-19T11:14:19;96275.38;;;19.42;44.49
45078;BME280;60508;42.622;25.416;2023-04-19T11:16:46;96277.81;;;19.84;43.00
45078;BME280;60508;42.622;25.416;2023-04-19T11:19:15;96283.91;;;18.59;45.12
45078;BME280;60508;42.622;25.416;2023-04-19T11:21:41;96260.94;;;18.29;44.97
45078;BME280;60508;42.622;25.416;2023-04-19T11:24:09;96279.69;;;18.89;44.85
45078;BME280;60508;42.622;25.416;2023-04-19T11:26:35;96279.13;;;19.24;43.33
45078;BME280;60508;42.622;25.416;2023-04-19T11:29:01;96285.19;;;18.98;44.78
45078;BME280;60508;42.622;25.416;2023-04-19T11:31:27;96286.31;;;17.82;46.27
45078;BME280;60508;42.622;25.416;2023-04-19T11:33:53;96269.19;;;16.93;48.49
45078;BME280;60508;42.622;25.416;2023-04-19T11:36:19;96276.59;;;16.50;47.94
45078;BME280;60508;42.622;25.416;2023-04-19T11:38:47;96286.34;;;17.96;46.38
45078;BME280;60508;42.622;25.416;2023-04-19T11:41:13;96287.88;;;19.43;42.55
45078;BME280;60508;42.622;25.416;2023-04-19T11:43:40;96282.34;;;19.26;42.11
45078;BME280;60508;42.622;25.416;2023-04-19T11:46:10;96274.00;;;19.94;42.59
45078;BME280;60508;42.622;25.416;2023-04-19T11:48:52;96268.53;;;20.69;40.17
45078;BME280;60508;42.622;25.416;2023-04-19T11:51:20;96275.91;;;20.86;39.56
45078;BME280;60508;42.622;25.416;2023-04-19T11:53:46;96265.25;;;21.75;38.95
45078;BME280;60508;42.622;25.416;2023-04-19T11:56:12;96261.72;;;21.75;37.35
45078;BME280;60508;42.622;25.416;2023-04-19T11:58:43;96264.91;;;22.45;35.74
45078;BME280;60508;42.622;25.416;2023-04-19T12:01:18;96265.94;;;23.62;34.96
45078;BME280;60508;42.622;25.416;2023-04-19T12:06:24;96253.06;;;23.87;33.53
45078;BME280;60508;42.622;25.416;2023-04-19T12:08:52;96268.91;;;23.69;33.76
45078;BME280;60508;42.622;25.416;2023-04-19T12:11:23;96259.66;;;24.35;32.49
45078;BME280;60508;42.622;25.416;2023-04-19T12:14:16;96257.31;;;24.74;31.48
45078;BME280;60508;42.622;25.416;2023-04-19T12:17:10;96255.13;;;25.68;30.54
45078;BME280;60508;42.622;25.416;2023-04-19T12:19:41;96239.56;;;25.28;31.30
45078;BME280;60508;42.622;25.416;2023-04-19T12:22:12;96255.84;;;28.69;27.81
45078;BME280;60508;42.622;25.416;2023-04-19T12:24:38;96242.84;;;28.43;26.57
45078;BME280;60508;42.622;25.416;2023-04-19T12:27:05;96246.75;;;26.64;28.03
45078;BME280;60508;42.622;25.416;2023-04-19T12:29:32;96243.75;;;24.29;31.33
45078;BME280;60508;42.622;25.416;2023-04-19T12:31:58;96241.22;;;21.60;34.46
45078;BME280;60508;42.622;25.416;2023-04-19T12:34:24;96240.19;;;22.33;34.71
45078;BME280;60508;42.622;25.416;2023-04-19T12:36:51;96240.19;;;22.54;35.07
45078;BME280;60508;42.622;25.416;2023-04-19T12:39:16;96243.81;;;22.46;35.02
45078;BME280;60508;42.622;25.416;2023-04-19T12:41:43;96228.06;;;23.43;35.00
45078;BME280;60508;42.622;25.416;2023-04-19T12:44:09;96245.84;;;26.76;29.53
45078;BME280;60508;42.622;25.416;2023-04-19T12:46:35;96247.38;;;28.28;26.90
45078;BME280;60508;42.622;25.416;2023-04-19T12:49:01;96240.34;;;28.34;26.25
45078;BME280;60508;42.622;25.416;2023-04-19T12:51:27;96234.09;;;25.44;29.65
45078;BME280;60508;42.622;25.416;2023-04-19T12:53:54;96228.69;;;23.98;32.08
45078;BME280;60508;42.622;25.416;2023-04-19T12:56:20;96219.09;;;24.69;32.22
45078;BME280;60508;42.622;25.416;2023-04-19T12:58:47;96225.97;;;24.91;30.99
45078;BME280;60508;42.622;25.416;2023-04-19T13:01:13;96225.63;;;24.52;31.07
45078;BME280;60508;42.622;25.416;2023-04-19T13:03:39;96226.47;;;22.75;32.86
45078;BME280;60508;42.622;25.416;2023-04-19T13:06:05;96227.50;;;21.68;35.87
45078;BME280;60508;42.622;25.416;2023-04-19T13:08:32;96230.59;;;20.58;37.13